Accueil
METAR-TAF:

METAR-TAF

Aéroports :

Milan, Italie

Aéroport de Milan-Linate

latitude: 45-26N, longitude: 009-17E, altitude: 107 m

Observation

Le bulletin a été fait il y a 42 minutes, à 10:20 UTC
Vent 2 kt de direction variable
Température 9°C
Humidité 71%
Pression 1021 hPa
Visibilité: 5000 m
Nuages fragmentés à une hauteur de 3500 ft
brume

METAR: LIML 221020Z VRB02KT 5000 BR BKN035 09/04 Q1021 NOSIG

Heure: 12:02 (11:02 UTC)

Prévision

Le bulletin a été fait il y a 6 heures et 2 minutes, à 05:00 UTC
Prévision valable du 22 à 06 UTC au 23 à 06 UTC
Vent 5 kt de direction variable
Visibilité: 7000 m
Nuages fragmentés à une hauteur de 3000 ft
Temporairement
du 22 à 22 UTC au 23 à 06 UTC
bruine

TAF: LIML 220500Z 2206/2306 VRB05KT 7000 BKN030 TEMPO 2222/2306 DZ

Observations et prévisions météorologiques de plus de 4000 aéroports (messages METAR et TAF).

Les stations disponibles sont représentées par des disques jaunes et rouges sur la carte.

Passer la souris dessus pour voir le nom de la station.

Cliquer dessus pour voir les observations et prévisions météorologiques.

Pour changer de carte: cliquez sur les boutons verts avec une croix noire pour zoomer, sur le bouton vert avec un tiret pour effectuer un zoom arrière, ou sur les flèches vertes pour les cartes adjacentes.


METAR-TAF: